sensor_id;sensor_type;location;lat;lon;timestamp;pressure;altitude;pressure_sealevel;temperature;humidity
71059;BME280;70265;47.576;19.270;2023-06-26T00:00:36;98751.81;;;16.46;100.00
71059;BME280;70265;47.576;19.270;2023-06-26T00:01:37;98749.72;;;16.42;100.00
71059;BME280;70265;47.576;19.270;2023-06-26T00:02:41;98757.44;;;16.43;100.00
71059;BME280;70265;47.576;19.270;2023-06-26T00:03:42;98749.72;;;16.42;100.00
71059;BME280;70265;47.576;19.270;2023-06-26T00:04:46;98758.06;;;16.39;100.00
71059;BME280;70265;47.576;19.270;2023-06-26T00:05:47;98754.97;;;16.35;100.00
71059;BME280;70265;47.576;19.270;2023-06-26T00:06:51;98753.66;;;16.24;100.00
71059;BME280;70265;47.576;19.270;2023-06-26T00:07:52;98751.19;;;16.23;100.00
71059;BME280;70265;47.576;19.270;2023-06-26T00:08:56;98750.34;;;16.16;100.00
71059;BME280;70265;47.576;19.270;2023-06-26T00:10:06;98748.44;;;16.10;100.00
71059;BME280;70265;47.576;19.270;2023-06-26T00:11:10;98756.19;;;16.11;100.00
71059;BME280;70265;47.576;19.270;2023-06-26T00:12:11;98754.97;;;16.14;100.00
71059;BME280;70265;47.576;19.270;2023-06-26T00:13:15;98749.69;;;16.14;100.00
71059;BME280;70265;47.576;19.270;2023-06-26T00:14:16;98749.91;;;16.12;100.00
71059;BME280;70265;47.576;19.270;2023-06-26T00:15:21;98755.38;;;16.11;100.00
71059;BME280;70265;47.576;19.270;2023-06-26T00:16:25;98749.19;;;16.04;100.00
71059;BME280;70265;47.576;19.270;2023-06-26T00:17:29;98756.13;;;16.05;100.00
71059;BME280;70265;47.576;19.270;2023-06-26T00:18:30;98747.25;;;16.12;100.00
71059;BME280;70265;47.576;19.270;2023-06-26T00:19:33;98756.88;;;16.20;100.00
71059;BME280;70265;47.576;19.270;2023-06-26T00:20:35;98752.44;;;16.27;100.00
71059;BME280;70265;47.576;19.270;2023-06-26T00:21:38;98753.97;;;16.36;100.00
71059;BME280;70265;47.576;19.270;2023-06-26T00:22:39;98752.16;;;16.43;99.79
71059;BME280;70265;47.576;19.270;2023-06-26T00:23:43;98740.78;;;16.43;100.00
71059;BME280;70265;47.576;19.270;2023-06-26T00:24:44;98751.63;;;16.54;98.78
71059;BME280;70265;47.576;19.270;2023-06-26T00:25:50;98755.19;;;16.61;98.29
71059;BME280;70265;47.576;19.270;2023-06-26T00:26:54;98756.25;;;16.67;97.57
71059;BME280;70265;47.576;19.270;2023-06-26T00:27:55;98752.81;;;16.73;96.49
71059;BME280;70265;47.576;19.270;2023-06-26T00:28:59;98748.41;;;16.80;95.88
71059;BME280;70265;47.576;19.270;2023-06-26T00:30:00;98758.81;;;16.88;95.11
71059;BME280;70265;47.576;19.270;2023-06-26T00:31:07;98749.47;;;16.92;94.85
71059;BME280;70265;47.576;19.270;2023-06-26T00:32:08;98758.84;;;16.95;94.51
71059;BME280;70265;47.576;19.270;2023-06-26T00:33:12;98750.50;;;16.98;94.58
71059;BME280;70265;47.576;19.270;2023-06-26T00:34:13;98746.66;;;17.00;94.60
71059;BME280;70265;47.576;19.270;2023-06-26T00:35:17;98746.47;;;17.02;94.29
71059;BME280;70265;47.576;19.270;2023-06-26T00:36:18;98742.41;;;17.06;94.29
71059;BME280;70265;47.576;19.270;2023-06-26T00:37:24;98738.75;;;17.07;93.75
71059;BME280;70265;47.576;19.270;2023-06-26T00:38:25;98742.41;;;17.06;93.87
71059;BME280;70265;47.576;19.270;2023-06-26T00:39:28;98748.56;;;17.13;93.68
71059;BME280;70265;47.576;19.270;2023-06-26T00:40:29;98752.03;;;17.13;93.60
71059;BME280;70265;47.576;19.270;2023-06-26T00:41:36;98752.63;;;17.15;92.93
71059;BME280;70265;47.576;19.270;2023-06-26T00:42:37;98756.97;;;17.23;92.75
71059;BME280;70265;47.576;19.270;2023-06-26T00:43:41;98747.59;;;17.27;92.45
71059;BME280;70265;47.576;19.270;2023-06-26T00:44:42;98754.34;;;17.29;92.07
71059;BME280;70265;47.576;19.270;2023-06-26T00:45:45;98759.25;;;17.33;92.32
71059;BME280;70265;47.576;19.270;2023-06-26T00:46:47;98748.63;;;17.33;91.82
71059;BME280;70265;47.576;19.270;2023-06-26T00:47:50;98760.31;;;17.38;91.52
71059;BME280;70265;47.576;19.270;2023-06-26T00:48:52;98755.78;;;17.39;91.79
71059;BME280;70265;47.576;19.270;2023-06-26T00:49:56;98745.19;;;17.39;91.82
71059;BME280;70265;47.576;19.270;2023-06-26T00:50:57;98746.66;;;17.41;91.47
71059;BME280;70265;47.576;19.270;2023-06-26T00:52:01;98747.25;;;17.43;91.56
71059;BME280;70265;47.576;19.270;2023-06-26T00:53:04;98749.91;;;17.43;91.73
71059;BME280;70265;47.576;19.270;2023-06-26T00:54:11;98745.41;;;17.44;91.29
71059;BME280;70265;47.576;19.270;2023-06-26T00:55:20;98746.25;;;17.44;91.48
71059;BME280;70265;47.576;19.270;2023-06-26T00:56:22;98744.41;;;17.45;91.63
71059;BME280;70265;47.576;19.270;2023-06-26T00:57:29;98740.94;;;17.44;91.82
71059;BME280;70265;47.576;19.270;2023-06-26T00:58:31;98747.06;;;17.45;92.28
71059;BME280;70265;47.576;19.270;2023-06-26T00:59:35;98750.53;;;17.45;92.26
71059;BME280;70265;47.576;19.270;2023-06-26T01:00:36;98740.94;;;17.44;92.36
71059;BME280;70265;47.576;19.270;2023-06-26T01:01:46;98742.94;;;17.42;92.69
71059;BME280;70265;47.576;19.270;2023-06-26T01:02:47;98741.53;;;17.40;92.68
71059;BME280;70265;47.576;19.270;2023-06-26T01:03:50;98740.72;;;17.39;92.79
71059;BME280;70265;47.576;19.270;2023-06-26T01:04:55;98738.44;;;17.36;93.01
71059;BME280;70265;47.576;19.270;2023-06-26T01:05:59;98736.44;;;17.38;92.83
71059;BME280;70265;47.576;19.270;2023-06-26T01:07:02;98737.84;;;17.34;92.83
71059;BME280;70265;47.576;19.270;2023-06-26T01:08:08;98746.22;;;17.38;92.84
71059;BME280;70265;47.576;19.270;2023-06-26T01:09:09;98739.84;;;17.32;93.76
71059;BME280;70265;47.576;19.270;2023-06-26T01:10:13;98738.84;;;17.26;94.06
71059;BME280;70265;47.576;19.270;2023-06-26T01:11:15;98734.94;;;17.22;93.97
71059;BME280;70265;47.576;19.270;2023-06-26T01:12:19;98745.13;;;17.25;94.15
71059;BME280;70265;47.576;19.270;2023-06-26T01:13:23;98738.22;;;17.24;94.14
71059;BME280;70265;47.576;19.270;2023-06-26T01:14:27;98743.72;;;17.23;94.34
71059;BME280;70265;47.576;19.270;2023-06-26T01:15:28;98739.00;;;17.25;94.05
71059;BME280;70265;47.576;19.270;2023-06-26T01:16:33;98740.47;;;17.27;93.77
71059;BME280;70265;47.576;19.270;2023-06-26T01:17:36;98738.66;;;17.28;93.93
71059;BME280;70265;47.576;19.270;2023-06-26T01:18:40;98740.66;;;17.26;93.79
71059;BME280;70265;47.576;19.270;2023-06-26T01:19:42;98738.44;;;17.29;93.47
71059;BME280;70265;47.576;19.270;2023-06-26T01:20:47;98731.13;;;17.32;93.16
71059;BME280;70265;47.576;19.270;2023-06-26T01:21:51;98734.97;;;17.36;93.02
71059;BME280;70265;47.576;19.270;2023-06-26T01:23:05;98734.16;;;17.35;92.99
71059;BME280;70265;47.576;19.270;2023-06-26T01:24:16;98736.44;;;17.38;93.00
71059;BME280;70265;47.576;19.270;2023-06-26T01:25:33;98729.09;;;17.40;93.06
71059;BME280;70265;47.576;19.270;2023-06-26T01:26:42;98732.34;;;17.42;92.94
71059;BME280;70265;47.576;19.270;2023-06-26T01:27:49;98727.03;;;17.42;93.06
71059;BME280;70265;47.576;19.270;2023-06-26T01:28:52;98727.03;;;17.42;93.03
71059;BME280;70265;47.576;19.270;2023-06-26T01:29:56;98725.44;;;17.41;93.08
71059;BME280;70265;47.576;19.270;2023-06-26T01:30:58;98732.34;;;17.42;92.97
71059;BME280;70265;47.576;19.270;2023-06-26T01:32:03;98727.88;;;17.43;92.78
71059;BME280;70265;47.576;19.270;2023-06-26T01:33:04;98730.34;;;17.44;92.95
71059;BME280;70265;47.576;19.270;2023-06-26T01:34:08;98727.69;;;17.44;92.32
71059;BME280;70265;47.576;19.270;2023-06-26T01:35:11;98733.00;;;17.51;92.28
71059;BME280;70265;47.576;19.270;2023-06-26T01:36:15;98725.88;;;17.51;92.17
71059;BME280;70265;47.576;19.270;2023-06-26T01:37:17;98722.81;;;17.54;91.90
71059;BME280;70265;47.576;19.270;2023-06-26T01:38:21;98727.09;;;17.55;91.81
71059;BME280;70265;47.576;19.270;2023-06-26T01:39:24;98718.91;;;17.50;91.65
71059;BME280;70265;47.576;19.270;2023-06-26T01:40:28;98734.06;;;17.56;91.76
71059;BME280;70265;47.576;19.270;2023-06-26T01:41:29;98735.69;;;17.57;91.69
71059;BME280;70265;47.576;19.270;2023-06-26T01:42:35;98729.56;;;17.57;91.79
71059;BME280;70265;47.576;19.270;2023-06-26T01:43:43;98727.09;;;17.55;91.80
71059;BME280;70265;47.576;19.270;2023-06-26T01:45:12;98730.19;;;17.59;91.95
71059;BME280;70265;47.576;19.270;2023-06-26T01:46:20;98723.88;;;17.60;91.47
71059;BME280;70265;47.576;19.270;2023-06-26T01:47:27;98723.88;;;17.60;91.76
71059;BME280;70265;47.576;19.270;2023-06-26T01:48:33;98723.03;;;17.59;91.87
71059;BME280;70265;47.576;19.270;2023-06-26T01:49:46;98727.34;;;17.60;91.97
71059;BME280;70265;47.576;19.270;2023-06-26T01:50:49;98721.44;;;17.58;91.82
71059;BME280;70265;47.576;19.270;2023-06-26T01:51:59;98723.69;;;17.61;92.07
71059;BME280;70265;47.576;19.270;2023-06-26T01:53:10;98731.41;;;17.63;91.62
71059;BME280;70265;47.576;19.270;2023-06-26T01:54:18;98723.47;;;17.63;91.50
71059;BME280;70265;47.576;19.270;2023-06-26T01:55:24;98719.63;;;17.65;91.42
71059;BME280;70265;47.576;19.270;2023-06-26T01:56:38;98728.59;;;17.64;91.57
71059;BME280;70265;47.576;19.270;2023-06-26T01:57:44;98723.88;;;17.66;91.16
71059;BME280;70265;47.576;19.270;2023-06-26T01:58:50;98725.53;;;17.67;91.26
71059;BME280;70265;47.576;19.270;2023-06-26T01:59:56;98721.22;;;17.66;91.19
71059;BME280;70265;47.576;19.270;2023-06-26T02:01:02;98724.28;;;17.70;91.37
71059;BME280;70265;47.576;19.270;2023-06-26T02:02:06;98726.13;;;17.69;91.17
71059;BME280;70265;47.576;19.270;2023-06-26T02:03:10;98725.13;;;17.70;91.22
71059;BME280;70265;47.576;19.270;2023-06-26T02:04:11;98720.81;;;17.69;91.71
71059;BME280;70265;47.576;19.270;2023-06-26T02:05:15;98726.75;;;17.71;91.56
71059;BME280;70265;47.576;19.270;2023-06-26T02:06:16;98723.06;;;17.72;91.60
71059;BME280;70265;47.576;19.270;2023-06-26T02:07:20;98723.06;;;17.72;92.10
71059;BME280;70265;47.576;19.270;2023-06-26T02:08:21;98725.72;;;17.72;91.70
71059;BME280;70265;47.576;19.270;2023-06-26T02:09:25;98719.63;;;17.72;92.18
71059;BME280;70265;47.576;19.270;2023-06-26T02:10:27;98728.59;;;17.71;93.34
71059;BME280;70265;47.576;19.270;2023-06-26T02:11:31;98728.19;;;17.74;92.56
71059;BME280;70265;47.576;19.270;2023-06-26T02:12:32;98726.97;;;17.76;91.57
71059;BME280;70265;47.576;19.270;2023-06-26T02:13:38;98722.28;;;17.78;91.55
71059;BME280;70265;47.576;19.270;2023-06-26T02:14:39;98726.56;;;17.79;91.60
71059;BME280;70265;47.576;19.270;2023-06-26T02:15:43;98720.25;;;17.80;91.90
71059;BME280;70265;47.576;19.270;2023-06-26T02:16:44;98718.41;;;17.81;91.85
71059;BME280;70265;47.576;19.270;2023-06-26T02:17:48;98723.53;;;17.83;91.45
71059;BME280;70265;47.576;19.270;2023-06-26T02:18:49;98718.22;;;17.83;91.60
71059;BME280;70265;47.576;19.270;2023-06-26T02:20:00;98718.22;;;17.83;90.92
71059;BME280;70265;47.576;19.270;2023-06-26T02:21:03;98716.78;;;17.87;90.58
71059;BME280;70265;47.576;19.270;2023-06-26T02:22:07;98726.78;;;17.91;90.52
71059;BME280;70265;47.576;19.270;2023-06-26T02:23:08;98727.38;;;17.93;90.29
71059;BME280;70265;47.576;19.270;2023-06-26T02:24:12;98719.44;;;17.93;90.62
71059;BME280;70265;47.576;19.270;2023-06-26T02:25:13;98725.56;;;17.94;90.64
71059;BME280;70265;47.576;19.270;2023-06-26T02:26:17;98728.03;;;17.95;91.29
71059;BME280;70265;47.576;19.270;2023-06-26T02:27:18;98726.97;;;17.90;94.15
71059;BME280;70265;47.576;19.270;2023-06-26T02:28:22;98723.69;;;17.74;97.83
71059;BME280;70265;47.576;19.270;2023-06-26T02:29:26;98723.06;;;17.72;98.63
71059;BME280;70265;47.576;19.270;2023-06-26T02:30:30;98723.28;;;17.71;98.07
71059;BME280;70265;47.576;19.270;2023-06-26T02:31:31;98731.66;;;17.74;96.78
71059;BME280;70265;47.576;19.270;2023-06-26T02:32:34;98734.91;;;17.76;96.27
71059;BME280;70265;47.576;19.270;2023-06-26T02:33:35;98735.13;;;17.75;96.38
71059;BME280;70265;47.576;19.270;2023-06-26T02:34:39;98736.13;;;17.67;99.18
71059;BME280;70265;47.576;19.270;2023-06-26T02:35:40;98739.28;;;17.43;100.00
71059;BME280;70265;47.576;19.270;2023-06-26T02:36:44;98731.94;;;17.39;100.00
71059;BME280;70265;47.576;19.270;2023-06-26T02:37:45;98739.28;;;17.43;100.00
71059;BME280;70265;47.576;19.270;2023-06-26T02:38:49;98736.88;;;17.48;100.00
71059;BME280;70265;47.576;19.270;2023-06-26T02:39:50;98738.72;;;17.54;100.00
71059;BME280;70265;47.576;19.270;2023-06-26T02:40:53;98737.75;;;17.62;99.38
71059;BME280;70265;47.576;19.270;2023-06-26T02:41:54;98735.50;;;17.59;100.00
71059;BME280;70265;47.576;19.270;2023-06-26T02:42:58;98735.69;;;17.57;100.00
71059;BME280;70265;47.576;19.270;2023-06-26T02:44:02;98743.69;;;17.64;99.02
71059;BME280;70265;47.576;19.270;2023-06-26T02:45:10;98741.44;;;17.67;98.71
71059;BME280;70265;47.576;19.270;2023-06-26T02:46:14;98734.91;;;17.70;99.02
71059;BME280;70265;47.576;19.270;2023-06-26T02:47:18;98732.06;;;17.71;98.55
71059;BME280;70265;47.576;19.270;2023-06-26T02:48:19;98725.34;;;17.75;96.24
71059;BME280;70265;47.576;19.270;2023-06-26T02:49:23;98738.41;;;17.84;94.54
71059;BME280;70265;47.576;19.270;2023-06-26T02:50:24;98741.28;;;17.89;94.74
71059;BME280;70265;47.576;19.270;2023-06-26T02:51:28;98732.50;;;17.88;96.46
71059;BME280;70265;47.576;19.270;2023-06-26T02:52:29;98738.22;;;17.92;97.83
71059;BME280;70265;47.576;19.270;2023-06-26T02:53:32;98735.75;;;17.90;99.41
71059;BME280;70265;47.576;19.270;2023-06-26T02:54:33;98739.81;;;17.79;100.00
71059;BME280;70265;47.576;19.270;2023-06-26T02:55:37;98737.78;;;17.68;100.00
71059;BME280;70265;47.576;19.270;2023-06-26T02:56:38;98743.88;;;17.62;100.00
71059;BME280;70265;47.576;19.270;2023-06-26T02:57:42;98741.84;;;17.64;100.00
71059;BME280;70265;47.576;19.270;2023-06-26T02:58:43;98740.19;;;17.63;100.00
71059;BME280;70265;47.576;19.270;2023-06-26T02:59:46;98736.97;;;17.68;100.00
71059;BME280;70265;47.576;19.270;2023-06-26T03:00:50;98741.22;;;17.62;100.00
71059;BME280;70265;47.576;19.270;2023-06-26T03:01:54;98729.69;;;17.36;100.00
71059;BME280;70265;47.576;19.270;2023-06-26T03:02:55;98741.47;;;17.20;100.00
71059;BME280;70265;47.576;19.270;2023-06-26T03:03:58;98738.75;;;17.07;100.00
71059;BME280;70265;47.576;19.270;2023-06-26T03:05:01;98738.19;;;17.18;100.00
71059;BME280;70265;47.576;19.270;2023-06-26T03:06:06;98735.75;;;17.23;100.00
71059;BME280;70265;47.576;19.270;2023-06-26T03:07:07;98744.56;;;17.30;100.00
71059;BME280;70265;47.576;19.270;2023-06-26T03:08:11;98748.44;;;17.27;100.00
71059;BME280;70265;47.576;19.270;2023-06-26T03:09:12;98745.38;;;17.30;100.00
71059;BME280;70265;47.576;19.270;2023-06-26T03:10:17;98740.91;;;17.31;100.00
71059;BME280;70265;47.576;19.270;2023-06-26T03:11:20;98739.66;;;17.27;100.00
71059;BME280;70265;47.576;19.270;2023-06-26T03:12:25;98752.69;;;17.28;100.00
71059;BME280;70265;47.576;19.270;2023-06-26T03:13:26;98745.16;;;17.32;100.00
71059;BME280;70265;47.576;19.270;2023-06-26T03:14:30;98751.06;;;17.27;100.00
71059;BME280;70265;47.576;19.270;2023-06-26T03:15:32;98747.22;;;17.30;100.00
71059;BME280;70265;47.576;19.270;2023-06-26T03:16:39;98744.16;;;17.33;100.00
71059;BME280;70265;47.576;19.270;2023-06-26T03:17:40;98752.09;;;17.33;100.00
71059;BME280;70265;47.576;19.270;2023-06-26T03:18:43;98756.19;;;17.36;100.00
71059;BME280;70265;47.576;19.270;2023-06-26T03:19:44;98747.03;;;17.38;100.00
71059;BME280;70265;47.576;19.270;2023-06-26T03:20:48;98753.97;;;17.39;100.00
71059;BME280;70265;47.576;19.270;2023-06-26T03:21:49;98753.34;;;17.37;100.00
71059;BME280;70265;47.576;19.270;2023-06-26T03:22:53;98758.84;;;17.36;100.00
71059;BME280;70265;47.576;19.270;2023-06-26T03:23:54;98756.00;;;17.37;100.00
71059;BME280;70265;47.576;19.270;2023-06-26T03:24:57;98760.91;;;17.40;100.00
71059;BME280;70265;47.576;19.270;2023-06-26T03:25:58;98755.63;;;17.47;100.00
71059;BME280;70265;47.576;19.270;2023-06-26T03:27:02;98750.94;;;17.49;100.00
71059;BME280;70265;47.576;19.270;2023-06-26T03:28:04;98756.63;;;17.39;100.00
71059;BME280;70265;47.576;19.270;2023-06-26T03:29:08;98753.50;;;17.29;100.00
71059;BME280;70265;47.576;19.270;2023-06-26T03:30:15;98762.84;;;17.18;100.00
71059;BME280;70265;47.576;19.270;2023-06-26T03:31:19;98761.03;;;17.25;100.00
71059;BME280;70265;47.576;19.270;2023-06-26T03:32:23;98765.38;;;17.33;100.00
71059;BME280;70265;47.576;19.270;2023-06-26T03:33:27;98761.31;;;17.37;100.00
71059;BME280;70265;47.576;19.270;2023-06-26T03:34:28;98754.34;;;17.36;100.00
71059;BME280;70265;47.576;19.270;2023-06-26T03:35:31;98754.78;;;17.40;100.00
71059;BME280;70265;47.576;19.270;2023-06-26T03:36:32;98759.28;;;17.46;100.00
71059;BME280;70265;47.576;19.270;2023-06-26T03:37:36;98756.03;;;17.44;100.00
71059;BME280;70265;47.576;19.270;2023-06-26T03:38:37;98762.75;;;17.40;100.00
71059;BME280;70265;47.576;19.270;2023-06-26T03:39:41;98760.50;;;17.43;100.00
71059;BME280;70265;47.576;19.270;2023-06-26T03:40:42;98755.22;;;17.43;100.00
71059;BME280;70265;47.576;19.270;2023-06-26T03:41:46;98761.72;;;17.41;100.00
71059;BME280;70265;47.576;19.270;2023-06-26T03:42:47;98756.00;;;17.37;100.00
71059;BME280;70265;47.576;19.270;2023-06-26T03:43:50;98764.56;;;17.39;100.00
71059;BME280;70265;47.576;19.270;2023-06-26T03:44:51;98762.97;;;17.38;100.00
71059;BME280;70265;47.576;19.270;2023-06-26T03:45:55;98750.53;;;17.45;100.00
71059;BME280;70265;47.576;19.270;2023-06-26T03:46:56;98760.09;;;17.40;100.00
71059;BME280;70265;47.576;19.270;2023-06-26T03:48:03;98761.72;;;17.41;100.00
71059;BME280;70265;47.576;19.270;2023-06-26T03:49:04;98758.69;;;17.44;100.00
71059;BME280;70265;47.576;19.270;2023-06-26T03:50:09;98758.88;;;17.42;100.00
71059;BME280;70265;47.576;19.270;2023-06-26T03:51:10;98763.97;;;17.44;100.00
71059;BME280;70265;47.576;19.270;2023-06-26T03:52:13;98770.72;;;17.46;100.00
71059;BME280;70265;47.576;19.270;2023-06-26T03:53:14;98756.88;;;17.51;100.00
71059;BME280;70265;47.576;19.270;2023-06-26T03:54:18;98762.59;;;17.54;100.00
71059;BME280;70265;47.576;19.270;2023-06-26T03:55:19;98761.78;;;17.54;100.00
71059;BME280;70265;47.576;19.270;2023-06-26T03:56:24;98758.50;;;17.52;100.00
71059;BME280;70265;47.576;19.270;2023-06-26T03:57:28;98750.31;;;17.47;100.00
71059;BME280;70265;47.576;19.270;2023-06-26T03:58:29;98758.75;;;17.57;100.00
71059;BME280;70265;47.576;19.270;2023-06-26T03:59:33;98762.66;;;17.61;100.00
71059;BME280;70265;47.576;19.270;2023-06-26T04:00:34;98764.91;;;17.64;100.00
71059;BME280;70265;47.576;19.270;2023-06-26T04:01:37;98763.50;;;17.68;100.00
71059;BME280;70265;47.576;19.270;2023-06-26T04:02:38;98759.59;;;17.70;100.00
71059;BME280;70265;47.576;19.270;2023-06-26T04:03:44;98764.50;;;17.73;99.61
71059;BME280;70265;47.576;19.270;2023-06-26T04:04:46;98767.00;;;17.82;100.00
71059;BME280;70265;47.576;19.270;2023-06-26T04:05:49;98769.66;;;17.82;99.37
71059;BME280;70265;47.576;19.270;2023-06-26T04:06:50;98766.59;;;17.85;99.01
71059;BME280;70265;47.576;19.270;2023-06-26T04:07:55;98765.16;;;17.89;99.37
71059;BME280;70265;47.576;19.270;2023-06-26T04:08:56;98766.78;;;17.90;98.89
71059;BME280;70265;47.576;19.270;2023-06-26T04:09:59;98762.28;;;17.90;99.04
71059;BME280;70265;47.576;19.270;2023-06-26T04:11:01;98762.72;;;17.94;99.00
71059;BME280;70265;47.576;19.270;2023-06-26T04:12:06;98763.34;;;17.96;98.58
71059;BME280;70265;47.576;19.270;2023-06-26T04:13:07;98760.06;;;18.00;98.41
71059;BME280;70265;47.576;19.270;2023-06-26T04:14:11;98766.00;;;18.02;99.15
71059;BME280;70265;47.576;19.270;2023-06-26T04:15:15;98760.28;;;17.99;99.48
71059;BME280;70265;47.576;19.270;2023-06-26T04:16:23;98763.97;;;18.04;100.00
71059;BME280;70265;47.576;19.270;2023-06-26T04:17:25;98762.72;;;18.07;100.00
71059;BME280;70265;47.576;19.270;2023-06-26T04:18:29;98760.09;;;18.20;100.00
71059;BME280;70265;47.576;19.270;2023-06-26T04:19:33;98762.75;;;18.20;99.39
71059;BME280;70265;47.576;19.270;2023-06-26T04:20:39;98758.25;;;18.27;98.61
71059;BME280;70265;47.576;19.270;2023-06-26T04:21:43;98759.06;;;18.27;98.14
71059;BME280;70265;47.576;19.270;2023-06-26T04:22:46;98761.31;;;18.37;97.21
71059;BME280;70265;47.576;19.270;2023-06-26T04:23:47;98761.94;;;18.46;96.93
71059;BME280;70265;47.576;19.270;2023-06-26T04:24:51;98764.22;;;18.55;97.32
71059;BME280;70265;47.576;19.270;2023-06-26T04:25:52;98763.38;;;18.55;95.89
71059;BME280;70265;47.576;19.270;2023-06-26T04:26:56;98761.13;;;18.58;95.54
71059;BME280;70265;47.576;19.270;2023-06-26T04:28:00;98763.38;;;18.61;96.38
71059;BME280;70265;47.576;19.270;2023-06-26T04:29:01;98767.69;;;18.62;96.85
71059;BME280;70265;47.576;19.270;2023-06-26T04:30:10;98762.16;;;18.64;96.59
71059;BME280;70265;47.576;19.270;2023-06-26T04:31:12;98764.19;;;18.68;96.84
71059;BME280;70265;47.576;19.270;2023-06-26T04:32:16;98766.22;;;18.79;98.21
71059;BME280;70265;47.576;19.270;2023-06-26T04:33:19;98766.44;;;18.85;97.93
71059;BME280;70265;47.576;19.270;2023-06-26T04:34:21;98766.81;;;18.81;97.05
71059;BME280;70265;47.576;19.270;2023-06-26T04:35:27;98771.72;;;18.91;97.76
71059;BME280;70265;47.576;19.270;2023-06-26T04:36:28;98757.38;;;18.99;99.18
71059;BME280;70265;47.576;19.270;2023-06-26T04:37:32;98764.31;;;19.06;99.32
71059;BME280;70265;47.576;19.270;2023-06-26T04:38:33;98767.19;;;19.05;98.65
71059;BME280;70265;47.576;19.270;2023-06-26T04:39:37;98769.66;;;19.00;97.49
71059;BME280;70265;47.576;19.270;2023-06-26T04:40:38;98769.88;;;18.98;96.43
71059;BME280;70265;47.576;19.270;2023-06-26T04:41:41;98768.00;;;18.99;96.39
71059;BME280;70265;47.576;19.270;2023-06-26T04:42:42;98765.16;;;19.00;96.00
71059;BME280;70265;47.576;19.270;2023-06-26T04:43:46;98772.91;;;19.02;96.38
71059;BME280;70265;47.576;19.270;2023-06-26T04:44:47;98767.59;;;19.02;96.95
71059;BME280;70265;47.576;19.270;2023-06-26T04:45:51;98760.66;;;19.01;97.32
71059;BME280;70265;47.576;19.270;2023-06-26T04:46:52;98770.44;;;19.07;97.06
71059;BME280;70265;47.576;19.270;2023-06-26T04:47:56;98767.59;;;19.08;97.41
71059;BME280;70265;47.576;19.270;2023-06-26T04:48:57;98767.19;;;19.11;96.76
71059;BME280;70265;47.576;19.270;2023-06-26T04:50:09;98765.72;;;19.15;95.26
71059;BME280;70265;47.576;19.270;2023-06-26T04:51:13;98770.00;;;19.16;93.74
71059;BME280;70265;47.576;19.270;2023-06-26T04:52:21;98772.25;;;19.19;92.60
71059;BME280;70265;47.576;19.270;2023-06-26T04:53:23;98776.56;;;19.20;92.40
71059;BME280;70265;47.576;19.270;2023-06-26T04:54:27;98777.53;;;19.26;92.63
71059;BME280;70265;47.576;19.270;2023-06-26T04:55:28;98774.09;;;19.25;91.55
71059;BME280;70265;47.576;19.270;2023-06-26T04:56:32;98779.38;;;19.32;91.91
71059;BME280;70265;47.576;19.270;2023-06-26T04:57:36;98778.97;;;19.35;92.33
71059;BME280;70265;47.576;19.270;2023-06-26T04:58:40;98781.19;;;19.38;92.58
71059;BME280;70265;47.576;19.270;2023-06-26T04:59:41;98771.81;;;19.42;92.49
71059;BME280;70265;47.576;19.270;2023-06-26T05:00:44;98774.84;;;19.52;93.86
71059;BME280;70265;47.576;19.270;2023-06-26T05:01:45;98780.56;;;19.56;93.54
71059;BME280;70265;47.576;19.270;2023-06-26T05:02:49;98782.78;;;19.59;92.99
71059;BME280;70265;47.576;19.270;2023-06-26T05:03:50;98780.94;;;19.59;91.97
71059;BME280;70265;47.576;19.270;2023-06-26T05:04:56;98782.34;;;19.62;90.90
71059;BME280;70265;47.576;19.270;2023-06-26T05:05:57;98775.59;;;19.66;91.27
71059;BME280;70265;47.576;19.270;2023-06-26T05:07:06;98782.91;;;19.70;92.01
71059;BME280;70265;47.576;19.270;2023-06-26T05:08:17;98779.78;;;19.87;93.63
71059;BME280;70265;47.576;19.270;2023-06-26T05:09:18;98782.00;;;19.90;92.84
71059;BME280;70265;47.576;19.270;2023-06-26T05:10:22;98781.78;;;19.91;92.47
71059;BME280;70265;47.576;19.270;2023-06-26T05:11:24;98782.50;;;20.05;92.74
71059;BME280;70265;47.576;19.270;2023-06-26T05:12:28;98784.75;;;20.08;90.93
71059;BME280;70265;47.576;19.270;2023-06-26T05:13:32;98785.84;;;20.25;92.22
71059;BME280;70265;47.576;19.270;2023-06-26T05:14:33;98779.09;;;20.54;91.75
71059;BME280;70265;47.576;19.270;2023-06-26T05:15:36;98784.81;;;20.57;92.59
71059;BME280;70265;47.576;19.270;2023-06-26T05:16:37;98787.09;;;20.78;89.41
71059;BME280;70265;47.576;19.270;2023-06-26T05:17:41;98785.31;;;20.91;90.92
71059;BME280;70265;47.576;19.270;2023-06-26T05:18:42;98784.44;;;20.97;90.10
71059;BME280;70265;47.576;19.270;2023-06-26T05:19:46;98786.06;;;20.98;91.50
71059;BME280;70265;47.576;19.270;2023-06-26T05:20:48;98782.47;;;20.86;90.82
71059;BME280;70265;47.576;19.270;2023-06-26T05:21:52;98784.00;;;20.81;92.25
71059;BME280;70265;47.576;19.270;2023-06-26T05:22:58;98784.31;;;20.67;89.75
71059;BME280;70265;47.576;19.270;2023-06-26T05:24:02;98784.63;;;20.52;88.49
71059;BME280;70265;47.576;19.270;2023-06-26T05:25:09;98791.97;;;20.32;86.75
71059;BME280;70265;47.576;19.270;2023-06-26T05:26:12;98781.97;;;20.21;87.86
71059;BME280;70265;47.576;19.270;2023-06-26T05:27:16;98787.63;;;20.06;89.14
71059;BME280;70265;47.576;19.270;2023-06-26T05:28:22;98787.00;;;20.04;89.58
71059;BME280;70265;47.576;19.270;2023-06-26T05:29:29;98786.44;;;20.02;89.83
71059;BME280;70265;47.576;19.270;2023-06-26T05:30:32;98782.81;;;19.90;90.58
71059;BME280;70265;47.576;19.270;2023-06-26T05:31:40;98785.09;;;19.80;90.29